createdAt,value
2018-12-02T00:00:48.637Z,2.36
2018-12-02T00:03:17.548Z,2.41
2018-12-02T00:05:46.496Z,2.43
2018-12-02T00:08:15.584Z,2.42
2018-12-02T00:10:44.540Z,2.45
2018-12-02T00:13:13.587Z,2.41
2018-12-02T00:15:42.693Z,2.42
2018-12-02T00:18:12.715Z,2.45
2018-12-02T00:20:41.955Z,2.51
2018-12-02T00:23:11.084Z,2.50
2018-12-02T00:25:40.029Z,2.50
2018-12-02T00:28:10.140Z,2.56
2018-12-02T00:30:39.567Z,2.52
2018-12-02T00:33:08.793Z,2.50
2018-12-02T00:35:37.740Z,2.50
2018-12-02T00:38:07.974Z,2.50
2018-12-02T00:40:37.080Z,2.50
2018-12-02T00:43:07.464Z,2.54
2018-12-02T00:45:37.715Z,2.53
2018-12-02T00:48:07.900Z,2.52
2018-12-02T00:50:37.034Z,2.53
2018-12-02T00:53:07.556Z,2.58
2018-12-02T00:55:41.678Z,2.55
2018-12-02T00:58:10.748Z,2.59
2018-12-02T01:00:39.894Z,2.71
2018-12-02T01:03:10.117Z,2.69
2018-12-02T01:05:39.447Z,2.65
2018-12-02T01:08:08.485Z,2.62
2018-12-02T01:10:37.702Z,2.65
2018-12-02T01:13:08.694Z,2.65
2018-12-02T01:15:38.568Z,2.65
2018-12-02T01:18:07.873Z,2.64
2018-12-02T01:20:37.703Z,2.71
2018-12-02T01:23:07.224Z,2.70
2018-12-02T01:25:36.691Z,2.66
2018-12-02T01:28:06.164Z,2.71
2018-12-02T01:30:35.403Z,2.71
2018-12-02T01:33:04.396Z,2.74
2018-12-02T01:35:33.404Z,2.71
2018-12-02T01:38:02.349Z,2.74
2018-12-02T01:40:31.262Z,2.78
2018-12-02T01:43:00.283Z,2.75
2018-12-02T01:45:29.414Z,2.72
2018-12-02T01:47:58.422Z,2.72
2018-12-02T01:50:27.447Z,2.75
2018-12-02T01:52:57.279Z,2.74
2018-12-02T01:55:26.220Z,2.79
2018-12-02T01:57:55.180Z,2.81
2018-12-02T02:00:25.399Z,2.83
2018-12-02T02:02:55.209Z,2.84
2018-12-02T02:05:25.058Z,2.82
2018-12-02T02:07:53.996Z,2.81
2018-12-02T02:10:24.817Z,2.79
2018-12-02T02:12:53.809Z,2.81
2018-12-02T02:15:22.766Z,2.81
2018-12-02T02:17:51.783Z,2.84
2018-12-02T02:20:22.754Z,2.84
2018-12-02T02:22:51.740Z,2.86
2018-12-02T02:25:21.637Z,2.83
2018-12-02T02:27:53.131Z,2.86
2018-12-02T02:30:24.070Z,2.85
2018-12-02T02:32:53.075Z,2.86
2018-12-02T02:35:22.620Z,2.89
2018-12-02T02:37:52.744Z,2.95
2018-12-02T02:40:25.601Z,2.97
2018-12-02T02:42:54.544Z,2.99
2018-12-02T02:45:23.613Z,2.96
2018-12-02T02:47:52.549Z,3.04
2018-12-02T02:50:23.271Z,3.10
2018-12-02T02:52:58.379Z,3.11
2018-12-02T02:55:27.427Z,3.14
2018-12-02T02:57:56.596Z,3.17
2018-12-02T03:00:26.413Z,3.24
2018-12-02T03:02:55.432Z,3.25
2018-12-02T03:05:24.384Z,3.32
2018-12-02T03:07:53.411Z,3.33
2018-12-02T03:10:22.773Z,3.34
2018-12-02T03:12:52.792Z,3.45
2018-12-02T03:15:22.427Z,3.47
2018-12-02T03:17:51.373Z,3.50
2018-12-02T03:20:21.418Z,3.53
2018-12-02T03:22:52.232Z,3.56
2018-12-02T03:25:22.047Z,3.57
2018-12-02T03:27:51.425Z,3.63
2018-12-02T03:30:22.300Z,3.65
2018-12-02T03:32:51.477Z,3.65
2018-12-02T03:35:21.556Z,3.70
2018-12-02T03:37:50.796Z,3.70
2018-12-02T03:40:21.643Z,3.74
2018-12-02T03:42:51.263Z,3.75
2018-12-02T03:45:21.370Z,3.78
2018-12-02T03:47:50.308Z,3.82
2018-12-02T03:50:21.140Z,3.82
2018-12-02T03:52:50.127Z,3.83
2018-12-02T03:55:19.072Z,3.87
2018-12-02T03:57:48.563Z,3.88
2018-12-02T04:00:21.479Z,3.96
2018-12-02T04:02:51.004Z,3.95
2018-12-02T04:05:23.003Z,3.94
2018-12-02T04:07:52.242Z,3.98
2018-12-02T04:10:21.700Z,4.01
2018-12-02T04:12:51.570Z,4.01
2018-12-02T04:15:22.291Z,4.06
2018-12-02T04:17:51.292Z,4.10
2018-12-02T04:20:20.713Z,4.09
2018-12-02T04:22:50.533Z,4.12
2018-12-02T04:25:23.843Z,4.13
2018-12-02T04:27:52.960Z,4.12
2018-12-02T04:30:22.705Z,4.18
2018-12-02T04:32:52.399Z,4.16
2018-12-02T04:35:23.321Z,4.16
2018-12-02T04:37:52.277Z,4.18
2018-12-02T04:40:21.306Z,4.15
2018-12-02T04:42:50.269Z,4.14
2018-12-02T04:45:19.809Z,4.12
2018-12-02T04:47:48.958Z,4.15
2018-12-02T04:50:22.844Z,4.16
2018-12-02T04:52:51.757Z,4.10
2018-12-02T04:55:20.707Z,4.09
2018-12-02T04:57:49.810Z,4.04
2018-12-02T05:00:19.664Z,4.03
2018-12-02T05:02:50.497Z,4.03
2018-12-02T05:05:22.522Z,4.05
2018-12-02T05:07:51.523Z,4.00
2018-12-02T05:10:21.096Z,3.97
2018-12-02T05:12:50.816Z,4.04
2018-12-02T05:15:20.592Z,4.03
2018-12-02T05:17:49.568Z,4.07
2018-12-02T05:20:19.483Z,4.04
2018-12-02T05:22:48.425Z,4.02
2018-12-02T05:25:18.642Z,4.00
2018-12-02T05:27:46.929Z,3.97
2018-12-02T05:30:18.917Z,3.96
2018-12-02T05:32:48.909Z,3.95
2018-12-02T05:35:17.826Z,3.93
2018-12-02T05:37:46.777Z,3.94
2018-12-02T05:40:20.663Z,3.95
2018-12-02T05:42:49.652Z,3.97
2018-12-02T05:45:19.040Z,3.93
2018-12-02T05:47:48.035Z,3.91
2018-12-02T05:50:23.905Z,3.92
2018-12-02T05:52:57.908Z,3.98
2018-12-02T05:55:29.149Z,3.98
2018-12-02T05:57:58.101Z,3.97
2018-12-02T06:00:27.100Z,3.97
2018-12-02T06:02:56.019Z,3.94
2018-12-02T06:05:25.034Z,3.96
2018-12-02T06:07:53.675Z,3.97
2018-12-02T06:10:23.010Z,4.01
2018-12-02T06:12:52.034Z,4.01
2018-12-02T06:15:22.044Z,4.01
2018-12-02T06:17:51.159Z,4.01
2018-12-02T06:20:21.962Z,3.99
2018-12-02T06:22:52.696Z,3.94
2018-12-02T06:25:21.619Z,3.90
2018-12-02T06:27:50.635Z,3.88
2018-12-02T06:30:22.353Z,3.86
2018-12-02T06:32:53.544Z,3.80
2018-12-02T06:35:22.531Z,3.75
2018-12-02T06:37:52.447Z,3.73
2018-12-02T06:40:23.443Z,3.70
2018-12-02T06:42:52.592Z,3.70
2018-12-02T06:45:23.616Z,3.69
2018-12-02T06:47:53.481Z,3.69
2018-12-02T06:50:30.209Z,3.69
2018-12-02T06:53:00.928Z,3.69
2018-12-02T06:55:33.713Z,3.69
2018-12-02T06:58:10.063Z,3.67
2018-12-02T07:00:44.904Z,3.68
2018-12-02T07:05:24.599Z,3.67
2018-12-02T07:07:53.597Z,3.68
2018-12-02T07:10:23.628Z,3.69
2018-12-02T07:12:52.583Z,3.67
2018-12-02T07:15:21.524Z,3.66
2018-12-02T07:17:50.596Z,3.65
2018-12-02T07:20:19.537Z,3.59
2018-12-02T07:22:48.603Z,3.51
2018-12-02T07:25:17.530Z,3.49
2018-12-02T07:27:46.487Z,3.51
2018-12-02T07:30:15.546Z,3.36
2018-12-02T07:32:44.480Z,3.25
2018-12-02T07:35:14.426Z,3.24
2018-12-02T07:37:46.499Z,3.12
2018-12-02T07:40:25.415Z,3.00
2018-12-02T07:42:54.379Z,2.92
2018-12-02T07:45:23.347Z,2.89
2018-12-02T07:47:52.458Z,2.91
2018-12-02T07:50:21.380Z,2.92
2018-12-02T07:52:50.399Z,2.94
2018-12-02T07:55:19.420Z,2.99
2018-12-02T07:57:48.951Z,3.01
2018-12-02T08:00:18.162Z,3.06
2018-12-02T08:02:47.150Z,3.06
2018-12-02T08:05:17.035Z,3.04
2018-12-02T08:07:47.476Z,3.00
2018-12-02T08:10:17.482Z,2.92
2018-12-02T08:12:46.500Z,2.84
2018-12-02T08:15:16.625Z,2.78
2018-12-02T08:17:45.846Z,2.75
2018-12-02T08:20:16.686Z,2.75
2018-12-02T08:22:51.250Z,2.78
2018-12-02T08:25:16.551Z,2.79
2018-12-02T08:27:46.227Z,2.80
2018-12-02T08:30:21.432Z,2.83
2018-12-02T08:32:50.473Z,2.85
2018-12-02T08:35:20.624Z,2.86
2018-12-02T08:37:51.053Z,2.88
2018-12-02T08:40:20.131Z,2.86
2018-12-02T08:42:49.131Z,2.88
2018-12-02T08:45:18.610Z,2.89
2018-12-02T08:47:47.523Z,2.90
2018-12-02T08:50:18.334Z,2.90
2018-12-02T08:55:12.049Z,2.91
2018-12-02T08:57:41.017Z,2.91
2018-12-02T09:00:12.564Z,2.93
2018-12-02T09:02:41.855Z,2.92
2018-12-02T09:05:12.307Z,2.89
2018-12-02T09:07:41.445Z,2.90
2018-12-02T09:10:13.838Z,2.92
2018-12-02T09:12:42.836Z,2.93
2018-12-02T09:15:11.853Z,2.92
2018-12-02T09:17:40.932Z,2.87
2018-12-02T09:20:12.278Z,2.81
2018-12-02T09:22:41.265Z,2.77
2018-12-02T09:25:10.193Z,2.79
2018-12-02T09:27:39.229Z,2.78
2018-12-02T09:30:10.841Z,2.81
2018-12-02T09:32:39.857Z,2.80
2018-12-02T09:35:09.932Z,2.85
2018-12-02T09:37:38.937Z,2.84
2018-12-02T09:40:09.705Z,2.85
2018-12-02T09:42:38.796Z,2.93
2018-12-02T09:45:09.779Z,2.97
2018-12-02T09:47:38.965Z,3.05
2018-12-02T09:50:10.472Z,3.07
2018-12-02T09:52:39.441Z,3.08
2018-12-02T09:55:13.259Z,3.11
2018-12-02T09:57:42.219Z,3.09
2018-12-02T10:00:15.373Z,3.09
2018-12-02T10:02:45.166Z,3.05
2018-12-02T10:05:14.210Z,3.05
2018-12-02T10:07:43.189Z,3.06
2018-12-02T10:10:26.876Z,3.04
2018-12-02T10:12:58.171Z,3.03
2018-12-02T10:15:27.808Z,2.99
2018-12-02T10:17:57.328Z,2.95
2018-12-02T10:20:26.326Z,2.95
2018-12-02T10:22:55.543Z,2.98
2018-12-02T10:25:25.316Z,3.01
2018-12-02T10:27:54.280Z,3.05
2018-12-02T10:30:24.809Z,3.07
2018-12-02T10:32:55.529Z,3.15
2018-12-02T10:35:24.574Z,3.21
2018-12-02T10:37:54.120Z,3.26
2018-12-02T10:40:25.964Z,3.31
2018-12-02T10:42:55.021Z,3.35
2018-12-02T10:45:25.079Z,3.33
2018-12-02T10:47:55.257Z,3.39
2018-12-02T10:50:28.334Z,3.51
2018-12-02T10:52:58.830Z,3.45
2018-12-02T10:55:35.152Z,3.50
2018-12-02T10:58:04.140Z,3.55
2018-12-02T11:00:38.545Z,3.58
2018-12-02T11:03:07.515Z,3.65
2018-12-02T11:05:36.628Z,3.61
2018-12-02T11:08:06.061Z,3.58
2018-12-02T11:10:35.071Z,3.56
2018-12-02T11:13:04.239Z,3.52
2018-12-02T11:15:33.206Z,3.47
2018-12-02T11:18:02.252Z,3.42
2018-12-02T11:20:31.205Z,3.44
2018-12-02T11:23:00.167Z,3.43
2018-12-02T11:25:29.147Z,3.45
2018-12-02T11:27:58.200Z,3.50
2018-12-02T11:30:27.310Z,3.51
2018-12-02T11:32:57.614Z,3.51
2018-12-02T11:35:26.636Z,3.43
2018-12-02T11:37:55.608Z,3.38
2018-12-02T11:40:24.630Z,3.31
2018-12-02T11:42:54.086Z,3.23
2018-12-02T11:45:23.178Z,3.20
2018-12-02T11:47:53.330Z,3.14
2018-12-02T11:50:24.350Z,3.03
2018-12-02T11:52:56.232Z,3.05
2018-12-02T11:55:25.238Z,3.00
2018-12-02T11:57:55.629Z,2.96
2018-12-02T12:00:27.803Z,2.93
2018-12-02T12:02:57.753Z,2.88
2018-12-02T12:05:27.028Z,2.86
2018-12-02T12:07:56.032Z,2.81
2018-12-02T12:10:26.099Z,2.77
2018-12-02T12:12:56.177Z,2.67
2018-12-02T12:15:26.341Z,2.69
2018-12-02T12:17:56.550Z,2.61
2018-12-02T12:20:26.885Z,2.58
2018-12-02T12:22:56.096Z,2.56
2018-12-02T12:25:25.211Z,2.56
2018-12-02T12:27:55.239Z,2.57
2018-12-02T12:30:32.097Z,2.56
2018-12-02T12:33:01.168Z,2.60
2018-12-02T12:35:30.175Z,2.62
2018-12-02T12:37:59.135Z,2.66
2018-12-02T12:40:30.141Z,2.68
2018-12-02T12:43:12.436Z,2.71
2018-12-02T12:45:41.384Z,2.78
2018-12-02T12:48:10.404Z,2.80
2018-12-02T12:50:39.633Z,2.84
2018-12-02T12:53:08.625Z,2.90
2018-12-02T12:55:37.870Z,2.91
2018-12-02T12:58:07.598Z,2.94
2018-12-02T13:00:37.458Z,2.96
2018-12-02T13:03:07.056Z,3.00
2018-12-02T13:05:36.066Z,3.00
2018-12-02T13:08:05.675Z,3.01
2018-12-02T13:10:34.641Z,3.01
2018-12-02T13:13:03.713Z,3.04
2018-12-02T13:15:32.671Z,3.04
2018-12-02T13:18:02.595Z,3.08
2018-12-02T13:21:02.644Z,3.07
2018-12-02T13:23:31.599Z,3.08
2018-12-02T13:26:00.556Z,3.10
2018-12-02T13:28:29.618Z,3.12
2018-12-02T13:30:58.682Z,3.13
2018-12-02T13:33:27.734Z,3.17
2018-12-02T13:35:56.901Z,3.24
2018-12-02T13:38:25.853Z,3.30
2018-12-02T13:40:54.801Z,3.36
2018-12-02T13:43:24.551Z,3.43
2018-12-02T13:45:53.505Z,3.47
2018-12-02T13:48:22.456Z,3.51
2018-12-02T13:50:53.809Z,3.55
2018-12-02T13:53:22.830Z,3.58
2018-12-02T13:55:51.929Z,3.59
2018-12-02T13:58:20.867Z,3.61
2018-12-02T14:00:50.802Z,3.63
2018-12-02T14:03:19.723Z,3.63
2018-12-02T14:05:49.145Z,3.66
2018-12-02T14:08:18.220Z,3.70
2018-12-02T14:10:47.199Z,3.72
2018-12-02T14:13:19.685Z,3.73
2018-12-02T14:16:02.367Z,3.71
2018-12-02T14:18:36.688Z,3.76
2018-12-02T14:21:06.120Z,3.81
2018-12-02T14:23:35.663Z,3.81
2018-12-02T14:26:09.072Z,3.80
2018-12-02T14:28:45.343Z,3.80
2018-12-02T14:31:14.913Z,3.77
2018-12-02T14:33:43.920Z,3.77
2018-12-02T14:36:12.978Z,3.78
2018-12-02T14:38:41.941Z,3.78
2018-12-02T14:41:10.900Z,3.78
2018-12-02T14:43:39.885Z,3.79
2018-12-02T14:46:08.872Z,3.84
2018-12-02T14:48:38.187Z,3.87
2018-12-02T14:51:07.243Z,3.88
2018-12-02T14:53:36.613Z,3.90
2018-12-02T14:56:07.673Z,3.92
2018-12-02T14:58:36.635Z,3.97
2018-12-02T15:01:05.804Z,4.00
2018-12-02T15:03:34.790Z,3.98
2018-12-02T15:06:03.800Z,3.95
2018-12-02T15:08:32.781Z,3.92
2018-12-02T15:11:01.771Z,3.92
2018-12-02T15:13:30.828Z,3.89
2018-12-02T15:16:00.082Z,3.90
2018-12-02T15:18:29.677Z,3.86
2018-12-02T15:20:58.680Z,3.80
2018-12-02T15:23:27.681Z,3.78
2018-12-02T15:25:56.693Z,3.78
2018-12-02T15:29:28.727Z,3.74
2018-12-02T15:31:59.223Z,3.72
2018-12-02T15:34:28.153Z,3.71
2018-12-02T15:36:57.111Z,3.68
2018-12-02T15:39:26.135Z,3.67
2018-12-02T15:41:55.094Z,3.68
2018-12-02T15:44:24.031Z,3.66
2018-12-02T15:46:52.988Z,3.66
2018-12-02T15:49:21.996Z,3.67
2018-12-02T15:51:51.013Z,3.67
2018-12-02T15:54:20.008Z,3.68
2018-12-02T15:56:48.952Z,3.69
2018-12-02T15:59:18.003Z,3.71
2018-12-02T16:01:47.062Z,3.68
2018-12-02T16:04:16.084Z,3.70
2018-12-02T16:06:45.028Z,3.70
2018-12-02T16:09:15.016Z,3.75
2018-12-02T16:11:42.965Z,3.74
2018-12-02T16:14:11.923Z,3.75
2018-12-02T16:16:40.906Z,3.74
2018-12-02T16:19:09.878Z,3.73
2018-12-02T16:21:38.816Z,3.74
2018-12-02T16:24:07.782Z,3.76
2018-12-02T16:26:36.785Z,3.78
2018-12-02T16:29:05.980Z,3.78
2018-12-02T16:31:34.997Z,3.82
2018-12-02T16:34:04.033Z,3.85
2018-12-02T16:36:33.018Z,3.89
2018-12-02T16:39:01.994Z,3.92
2018-12-02T16:41:31.072Z,3.95
2018-12-02T16:44:00.038Z,3.95
2018-12-02T16:46:29.009Z,3.95
2018-12-02T16:48:58.011Z,3.99
2018-12-02T16:51:26.993Z,4.00
2018-12-02T16:53:56.097Z,4.01
2018-12-02T16:56:25.367Z,4.02
2018-12-02T16:59:27.974Z,4.06
2018-12-02T17:02:04.946Z,4.08
2018-12-02T17:04:29.025Z,4.08
2018-12-02T17:06:58.223Z,4.11
2018-12-02T17:09:27.214Z,4.12
2018-12-02T17:11:56.306Z,4.16
2018-12-02T17:14:25.301Z,4.21
2018-12-02T17:16:54.296Z,4.21
2018-12-02T17:19:23.282Z,4.27
2018-12-02T17:21:52.256Z,4.26
2018-12-02T17:24:21.232Z,4.29
2018-12-02T17:26:50.173Z,4.33
2018-12-02T17:29:20.391Z,4.34
2018-12-02T17:31:54.567Z,4.38
2018-12-02T17:34:23.578Z,4.42
2018-12-02T17:36:53.015Z,4.46
2018-12-02T17:39:25.139Z,4.49
2018-12-02T17:42:02.762Z,4.53
2018-12-02T17:44:31.851Z,4.53
2018-12-02T17:47:00.782Z,4.56
2018-12-02T17:49:29.860Z,4.58
2018-12-02T17:51:58.899Z,4.62
2018-12-02T17:54:27.857Z,4.62
2018-12-02T17:56:56.796Z,4.65
2018-12-02T17:59:25.745Z,4.69
2018-12-02T18:01:54.757Z,4.73
2018-12-02T18:04:23.704Z,4.79
2018-12-02T18:06:52.676Z,4.81
2018-12-02T18:09:21.612Z,4.86
2018-12-02T18:11:50.683Z,4.85
2018-12-02T18:14:19.671Z,4.86
2018-12-02T18:16:50.224Z,4.90
2018-12-02T18:19:17.719Z,4.97
2018-12-02T18:21:46.667Z,4.98
2018-12-02T18:24:15.654Z,4.99
2018-12-02T18:26:44.683Z,5.00
2018-12-02T18:29:13.707Z,5.14
2018-12-02T18:31:43.049Z,5.12
2018-12-02T18:34:12.106Z,5.07
2018-12-02T18:36:41.095Z,5.07
2018-12-02T18:39:12.332Z,5.11
2018-12-02T18:41:44.284Z,5.09
2018-12-02T18:44:15.016Z,5.11
2018-12-02T18:46:43.976Z,5.12
2018-12-02T18:49:12.985Z,5.15
2018-12-02T18:51:41.960Z,5.17
2018-12-02T18:54:11.213Z,5.17
2018-12-02T18:56:40.874Z,5.17
2018-12-02T18:59:09.864Z,5.18
2018-12-02T19:01:38.821Z,5.21
2018-12-02T19:04:07.965Z,5.20
2018-12-02T19:06:36.925Z,5.21
2018-12-02T19:09:09.509Z,5.23
2018-12-02T19:11:38.522Z,5.25
2018-12-02T19:14:07.525Z,5.25
2018-12-02T19:16:36.543Z,5.28
2018-12-02T19:19:06.016Z,5.32
2018-12-02T19:21:35.016Z,5.34
2018-12-02T19:24:04.029Z,5.36
2018-12-02T19:26:33.006Z,5.40
2018-12-02T19:29:01.974Z,5.44
2018-12-02T19:31:30.912Z,5.52
2018-12-02T19:33:59.858Z,5.55
2018-12-02T19:36:31.695Z,5.55
2018-12-02T19:39:00.688Z,5.61
2018-12-02T19:41:30.391Z,5.64
2018-12-02T19:43:59.478Z,5.67
2018-12-02T19:46:28.489Z,5.72
2018-12-02T19:48:57.443Z,5.79
2018-12-02T19:51:26.424Z,5.80
2018-12-02T19:53:55.431Z,5.89
2018-12-02T19:56:24.387Z,5.89
2018-12-02T19:58:53.355Z,5.92
2018-12-02T20:01:22.290Z,5.92
2018-12-02T20:03:51.240Z,5.94
2018-12-02T20:06:20.281Z,5.96
2018-12-02T20:08:49.256Z,5.94
2018-12-02T20:11:18.169Z,5.93
2018-12-02T20:13:47.125Z,5.93
2018-12-02T20:16:18.611Z,5.86
2018-12-02T20:18:48.016Z,5.83
2018-12-02T20:21:18.299Z,5.82
2018-12-02T20:23:52.695Z,5.80
2018-12-02T20:26:21.652Z,5.78
2018-12-02T20:28:53.620Z,5.76
2018-12-02T20:31:24.672Z,5.77
2018-12-02T20:33:53.704Z,5.77
2018-12-02T20:36:22.767Z,5.76
2018-12-02T20:38:51.734Z,5.76
2018-12-02T20:41:20.756Z,5.74
2018-12-02T20:43:49.748Z,5.73
2018-12-02T20:46:18.929Z,5.71
2018-12-02T20:48:47.911Z,5.68
2018-12-02T20:51:17.118Z,5.70
2018-12-02T20:53:46.116Z,5.67
2018-12-02T20:56:15.101Z,5.65
2018-12-02T20:58:44.049Z,5.56
2018-12-02T21:01:13.461Z,5.56
2018-12-02T21:03:45.625Z,5.55
2018-12-02T21:06:20.390Z,5.47
2018-12-02T21:08:49.485Z,5.39
2018-12-02T21:11:18.679Z,5.38
2018-12-02T21:13:47.659Z,5.34
2018-12-02T21:16:16.603Z,5.32
2018-12-02T21:18:45.634Z,5.27
2018-12-02T21:21:14.612Z,5.25
2018-12-02T21:23:43.803Z,5.21
2018-12-02T21:26:13.098Z,5.19
2018-12-02T21:28:42.446Z,5.17
2018-12-02T21:31:11.379Z,5.11
2018-12-02T21:33:40.348Z,5.09
2018-12-02T21:36:09.571Z,5.07
2018-12-02T21:38:38.560Z,5.03
2018-12-02T21:41:07.497Z,5.02
2018-12-02T21:43:36.520Z,4.97
2018-12-02T21:46:27.067Z,5.05
2018-12-02T21:48:58.189Z,5.00
2018-12-02T21:51:27.149Z,4.98
2018-12-02T21:53:56.155Z,4.97
2018-12-02T21:56:29.663Z,4.95
2018-12-02T21:58:58.612Z,5.01
2018-12-02T22:01:27.592Z,4.98
2018-12-02T22:03:56.494Z,5.01
2018-12-02T22:06:25.425Z,5.03
2018-12-02T22:08:54.333Z,5.03
2018-12-02T22:11:23.337Z,5.09
2018-12-02T22:13:52.239Z,5.03
2018-12-02T22:16:21.207Z,5.06
2018-12-02T22:18:50.147Z,5.04
2018-12-02T22:21:19.313Z,5.04
2018-12-02T22:23:48.254Z,5.04
2018-12-02T22:26:17.247Z,5.01
2018-12-02T22:28:46.396Z,4.99
2018-12-02T22:31:15.340Z,5.00
2018-12-02T22:33:44.293Z,5.00
2018-12-02T22:36:14.185Z,5.00
2018-12-02T22:38:42.248Z,5.04
2018-12-02T22:41:11.183Z,5.06
2018-12-02T22:43:40.154Z,5.05
2018-12-02T22:46:09.440Z,5.07
2018-12-02T22:48:38.471Z,5.08
2018-12-02T22:51:08.283Z,5.06
2018-12-02T22:53:37.249Z,5.03
2018-12-02T22:56:06.527Z,5.05
2018-12-02T22:58:35.493Z,5.00
2018-12-02T23:01:09.924Z,5.02
2018-12-02T23:03:38.939Z,4.99
2018-12-02T23:06:08.058Z,4.97
2018-12-02T23:08:37.007Z,4.95
2018-12-02T23:11:06.576Z,4.94
2018-12-02T23:13:35.512Z,4.92
2018-12-02T23:16:04.536Z,4.93
2018-12-02T23:18:33.452Z,4.91
2018-12-02T23:21:02.383Z,4.87
2018-12-02T23:23:31.323Z,4.87
2018-12-02T23:26:00.280Z,4.89
2018-12-02T23:28:29.203Z,4.84
2018-12-02T23:30:58.152Z,4.82
2018-12-02T23:33:27.306Z,4.82
2018-12-02T23:35:56.304Z,4.83
2018-12-02T23:38:25.237Z,4.82
2018-12-02T23:40:54.174Z,4.83
2018-12-02T23:43:23.119Z,4.82
2018-12-02T23:45:52.149Z,4.80
2018-12-02T23:48:21.105Z,4.90
2018-12-02T23:50:50.536Z,4.83
2018-12-02T23:53:19.461Z,4.82
2018-12-02T23:55:48.404Z,4.81
2018-12-02T23:58:17.423Z,4.77
